sensor_id;sensor_type;location;lat;lon;timestamp;pressure;altitude;pressure_sealevel;temperature;humidity
63035;BME280;59750;53.356;-1.458;2022-09-12T00:02:25;100126.59;;;15.96;100.00
63035;BME280;59750;53.356;-1.458;2022-09-12T00:04:51;100128.25;;;15.97;99.25
63035;BME280;59750;53.356;-1.458;2022-09-12T00:07:18;100122.09;;;15.97;99.87
63035;BME280;59750;53.356;-1.458;2022-09-12T00:09:44;100127.41;;;15.97;100.00
63035;BME280;59750;53.356;-1.458;2022-09-12T00:12:10;100128.41;;;15.96;100.00
63035;BME280;59750;53.356;-1.458;2022-09-12T00:14:35;100124.25;;;15.93;100.00
63035;BME280;59750;53.356;-1.458;2022-09-12T00:17:02;100128.88;;;15.91;100.00
63035;BME280;59750;53.356;-1.458;2022-09-12T00:19:29;100121.19;;;15.88;100.00
63035;BME280;59750;53.356;-1.458;2022-09-12T00:21:55;100119.81;;;15.84;100.00
63035;BME280;59750;53.356;-1.458;2022-09-12T00:24:21;100123.63;;;15.82;100.00
63035;BME280;59750;53.356;-1.458;2022-09-12T00:26:50;100110.50;;;15.80;100.00
63035;BME280;59750;53.356;-1.458;2022-09-12T00:29:18;100116.13;;;15.77;100.00
63035;BME280;59750;53.356;-1.458;2022-09-12T00:31:45;100115.44;;;15.75;100.00
63035;BME280;59750;53.356;-1.458;2022-09-12T00:34:11;100110.47;;;15.72;100.00
63035;BME280;59750;53.356;-1.458;2022-09-12T00:36:37;100108.09;;;15.69;100.00
63035;BME280;59750;53.356;-1.458;2022-09-12T00:39:04;100107.06;;;15.62;100.00
63035;BME280;59750;53.356;-1.458;2022-09-12T00:41:32;100105.63;;;15.58;100.00
63035;BME280;59750;53.356;-1.458;2022-09-12T00:44:02;100102.47;;;15.54;100.00
63035;BME280;59750;53.356;-1.458;2022-09-12T00:46:34;100098.59;;;15.49;100.00
63035;BME280;59750;53.356;-1.458;2022-09-12T00:49:14;100100.34;;;15.40;100.00
63035;BME280;59750;53.356;-1.458;2022-09-12T00:51:48;100092.41;;;15.40;100.00
63035;BME280;59750;53.356;-1.458;2022-09-12T00:54:21;100099.66;;;15.38;100.00
63035;BME280;59750;53.356;-1.458;2022-09-12T00:56:49;100086.84;;;15.33;100.00
63035;BME280;59750;53.356;-1.458;2022-09-12T00:59:21;100081.84;;;15.30;100.00
63035;BME280;59750;53.356;-1.458;2022-09-12T01:01:49;100092.75;;;15.27;100.00
63035;BME280;59750;53.356;-1.458;2022-09-12T01:04:18;100089.41;;;15.25;100.00
63035;BME280;59750;53.356;-1.458;2022-09-12T01:06:45;100091.38;;;15.23;100.00
63035;BME280;59750;53.356;-1.458;2022-09-12T01:09:16;100104.78;;;15.22;100.00
63035;BME280;59750;53.356;-1.458;2022-09-12T01:11:43;100095.16;;;15.21;100.00
63035;BME280;59750;53.356;-1.458;2022-09-12T01:14:14;100090.03;;;15.19;100.00
63035;BME280;59750;53.356;-1.458;2022-09-12T01:16:41;100086.69;;;15.17;100.00
63035;BME280;59750;53.356;-1.458;2022-09-12T01:33:33;100078.69;;;14.99;100.00
63035;BME280;59750;53.356;-1.458;2022-09-12T01:38:52;100067.88;;;14.93;100.00
63035;BME280;59750;53.356;-1.458;2022-09-12T01:41:34;100059.25;;;14.91;100.00
63035;BME280;59750;53.356;-1.458;2022-09-12T01:49:32;100040.91;;;14.79;100.00
63035;BME280;59750;53.356;-1.458;2022-09-12T11:27:05;99967.75;;;20.07;99.18
63035;BME280;59750;53.356;-1.458;2022-09-12T11:40:52;99967.56;;;20.23;100.00
63035;BME280;59750;53.356;-1.458;2022-09-12T11:51:39;99984.63;;;20.08;100.00
63035;BME280;59750;53.356;-1.458;2022-09-12T11:57:04;99977.81;;;20.05;100.00
63035;BME280;59750;53.356;-1.458;2022-09-12T12:02:00;99976.78;;;20.06;100.00
63035;BME280;59750;53.356;-1.458;2022-09-12T12:04:39;99982.75;;;19.93;100.00
63035;BME280;59750;53.356;-1.458;2022-09-12T12:07:09;99994.72;;;19.83;100.00
63035;BME280;59750;53.356;-1.458;2022-09-12T12:09:55;99988.81;;;19.72;100.00
63035;BME280;59750;53.356;-1.458;2022-09-12T12:12:24;99992.09;;;19.60;100.00
63035;BME280;59750;53.356;-1.458;2022-09-12T12:14:54;99989.34;;;19.45;100.00
63035;BME280;59750;53.356;-1.458;2022-09-12T12:17:24;99992.72;;;19.39;100.00
63035;BME280;59750;53.356;-1.458;2022-09-12T12:20:00;99991.59;;;19.33;100.00
63035;BME280;59750;53.356;-1.458;2022-09-12T12:22:29;100005.75;;;19.34;100.00
63035;BME280;59750;53.356;-1.458;2022-09-12T12:33:00;99996.19;;;19.25;100.00
63035;BME280;59750;53.356;-1.458;2022-09-12T12:35:42;99994.81;;;19.29;100.00
63035;BME280;59750;53.356;-1.458;2022-09-12T12:38:30;100002.75;;;19.37;100.00
63035;BME280;59750;53.356;-1.458;2022-09-12T12:43:43;100013.75;;;19.34;100.00
63035;BME280;59750;53.356;-1.458;2022-09-12T12:46:12;100005.00;;;19.25;100.00
63035;BME280;59750;53.356;-1.458;2022-09-12T13:00:05;99989.38;;;19.22;100.00
63035;BME280;59750;53.356;-1.458;2022-09-12T13:02:39;99991.78;;;19.32;100.00
63035;BME280;59750;53.356;-1.458;2022-09-12T13:05:21;99992.91;;;19.37;100.00
63035;BME280;59750;53.356;-1.458;2022-09-12T13:08:02;99994.69;;;19.45;100.00
63035;BME280;59750;53.356;-1.458;2022-09-12T13:10:32;99988.00;;;19.49;100.00
63035;BME280;59750;53.356;-1.458;2022-09-12T13:13:01;99989.00;;;19.48;100.00
63035;BME280;59750;53.356;-1.458;2022-09-12T13:18:05;99978.09;;;19.58;100.00
63035;BME280;59750;53.356;-1.458;2022-09-12T13:20:43;99987.94;;;19.57;100.00
63035;BME280;59750;53.356;-1.458;2022-09-12T13:23:30;99967.78;;;19.55;100.00
63035;BME280;59750;53.356;-1.458;2022-09-12T13:25:58;99972.75;;;19.58;100.00
63035;BME280;59750;53.356;-1.458;2022-09-12T13:28:27;99969.19;;;19.65;100.00
63035;BME280;59750;53.356;-1.458;2022-09-12T13:31:17;99970.84;;;19.66;100.00
63035;BME280;59750;53.356;-1.458;2022-09-12T13:39:18;99986.28;;;19.56;100.00
63035;BME280;59750;53.356;-1.458;2022-09-12T13:44:34;99991.00;;;19.46;100.00
63035;BME280;59750;53.356;-1.458;2022-09-12T13:47:04;99988.41;;;19.38;100.00
63035;BME280;59750;53.356;-1.458;2022-09-12T13:49:36;99979.47;;;19.31;100.00
63035;BME280;59750;53.356;-1.458;2022-09-12T13:52:16;99979.16;;;19.26;100.00
63035;BME280;59750;53.356;-1.458;2022-09-12T13:54:50;99986.88;;;19.21;100.00
63035;BME280;59750;53.356;-1.458;2022-09-12T13:57:33;99981.53;;;19.21;100.00
63035;BME280;59750;53.356;-1.458;2022-09-12T14:00:11;99972.91;;;19.19;100.00
63035;BME280;59750;53.356;-1.458;2022-09-12T14:02:46;99965.91;;;19.18;100.00
63035;BME280;59750;53.356;-1.458;2022-09-12T14:05:18;99968.41;;;19.19;100.00
63035;BME280;59750;53.356;-1.458;2022-09-12T14:07:50;99977.41;;;19.18;100.00
63035;BME280;59750;53.356;-1.458;2022-09-12T14:13:00;99971.06;;;19.19;100.00
63035;BME280;59750;53.356;-1.458;2022-09-12T14:15:31;99961.22;;;19.20;100.00
63035;BME280;59750;53.356;-1.458;2022-09-12T14:18:02;99961.69;;;19.23;100.00
63035;BME280;59750;53.356;-1.458;2022-09-12T14:20:37;99965.00;;;19.25;100.00
63035;BME280;59750;53.356;-1.458;2022-09-12T14:23:32;99965.84;;;19.26;100.00
63035;BME280;59750;53.356;-1.458;2022-09-12T14:26:02;99966.66;;;19.26;100.00
63035;BME280;59750;53.356;-1.458;2022-09-12T14:28:32;99963.53;;;19.23;100.00
63035;BME280;59750;53.356;-1.458;2022-09-12T14:31:05;99961.50;;;19.25;100.00
63035;BME280;59750;53.356;-1.458;2022-09-12T14:33:47;99954.53;;;19.24;100.00
63035;BME280;59750;53.356;-1.458;2022-09-12T14:36:23;99962.69;;;19.22;100.00
63035;BME280;59750;53.356;-1.458;2022-09-12T14:38:55;99966.56;;;19.20;100.00
63035;BME280;59750;53.356;-1.458;2022-09-12T14:41:27;99971.25;;;19.18;100.00
63035;BME280;59750;53.356;-1.458;2022-09-12T14:43:57;99974.41;;;19.13;100.00
63035;BME280;59750;53.356;-1.458;2022-09-12T14:46:31;99969.81;;;19.07;100.00
63035;BME280;59750;53.356;-1.458;2022-09-12T14:49:22;99974.72;;;18.95;100.00
63035;BME280;59750;53.356;-1.458;2022-09-12T14:54:36;99963.09;;;18.88;100.00
63035;BME280;59750;53.356;-1.458;2022-09-12T15:00:16;99949.28;;;18.84;100.00
63035;BME280;59750;53.356;-1.458;2022-09-12T15:02:45;99959.13;;;18.84;100.00
63035;BME280;59750;53.356;-1.458;2022-09-12T15:12:39;99950.53;;;18.74;100.00
63035;BME280;59750;53.356;-1.458;2022-09-12T15:15:15;99954.03;;;18.74;100.00
63035;BME280;59750;53.356;-1.458;2022-09-12T15:17:41;99951.53;;;18.73;100.00
63035;BME280;59750;53.356;-1.458;2022-09-12T15:20:08;99952.38;;;18.73;100.00
63035;BME280;59750;53.356;-1.458;2022-09-12T15:22:36;99963.38;;;18.70;100.00
63035;BME280;59750;53.356;-1.458;2022-09-12T15:25:05;99958.41;;;18.67;100.00
63035;BME280;59750;53.356;-1.458;2022-09-12T15:27:31;99957.56;;;18.67;100.00
63035;BME280;59750;53.356;-1.458;2022-09-12T15:29:58;99948.28;;;18.63;100.00
63035;BME280;59750;53.356;-1.458;2022-09-12T15:32:26;99948.75;;;18.58;100.00
63035;BME280;59750;53.356;-1.458;2022-09-12T15:34:54;99958.91;;;18.54;100.00
63035;BME280;59750;53.356;-1.458;2022-09-12T15:37:22;99962.94;;;18.50;100.00
63035;BME280;59750;53.356;-1.458;2022-09-12T15:39:50;99956.78;;;18.50;100.00
63035;BME280;59750;53.356;-1.458;2022-09-12T15:42:23;99969.97;;;18.43;100.00
63035;BME280;59750;53.356;-1.458;2022-09-12T15:44:52;99969.66;;;18.38;100.00
63035;BME280;59750;53.356;-1.458;2022-09-12T15:47:19;99976.00;;;18.37;100.00
63035;BME280;59750;53.356;-1.458;2022-09-12T15:49:46;99970.16;;;18.34;100.00
63035;BME280;59750;53.356;-1.458;2022-09-12T15:52:14;99960.19;;;18.28;100.00
63035;BME280;59750;53.356;-1.458;2022-09-12T15:54:42;99953.59;;;18.15;100.00
63035;BME280;59750;53.356;-1.458;2022-09-12T15:57:08;99944.47;;;18.10;100.00
63035;BME280;59750;53.356;-1.458;2022-09-12T15:59:35;99946.63;;;18.06;100.00
63035;BME280;59750;53.356;-1.458;2022-09-12T16:02:01;99950.47;;;18.04;100.00
63035;BME280;59750;53.356;-1.458;2022-09-12T16:04:28;99943.81;;;18.00;100.00
63035;BME280;59750;53.356;-1.458;2022-09-12T16:06:55;99942.50;;;17.96;100.00
63035;BME280;59750;53.356;-1.458;2022-09-12T16:09:22;99937.19;;;17.96;100.00
63035;BME280;59750;53.356;-1.458;2022-09-12T16:11:49;99936.22;;;17.88;100.00
63035;BME280;59750;53.356;-1.458;2022-09-12T16:14:17;99941.53;;;17.80;100.00
63035;BME280;59750;53.356;-1.458;2022-09-12T16:16:51;99942.88;;;17.76;100.00
63035;BME280;59750;53.356;-1.458;2022-09-12T16:19:19;99944.06;;;17.74;100.00
63035;BME280;59750;53.356;-1.458;2022-09-12T16:21:47;99943.56;;;17.70;100.00
63035;BME280;59750;53.356;-1.458;2022-09-12T16:24:15;99945.56;;;17.68;100.00
63035;BME280;59750;53.356;-1.458;2022-09-12T16:26:42;99949.22;;;17.67;100.00
63035;BME280;59750;53.356;-1.458;2022-09-12T16:29:11;99949.53;;;17.64;100.00
63035;BME280;59750;53.356;-1.458;2022-09-12T16:31:39;99949.88;;;17.61;100.00
63035;BME280;59750;53.356;-1.458;2022-09-12T16:34:05;99957.38;;;17.57;100.00
63035;BME280;59750;53.356;-1.458;2022-09-12T16:36:33;99945.06;;;17.56;100.00
63035;BME280;59750;53.356;-1.458;2022-09-12T16:38:59;99948.91;;;17.54;100.00
63035;BME280;59750;53.356;-1.458;2022-09-12T16:41:26;99953.38;;;17.53;100.00
63035;BME280;59750;53.356;-1.458;2022-09-12T16:43:53;99945.41;;;17.53;100.00
63035;BME280;59750;53.356;-1.458;2022-09-12T16:46:24;99951.69;;;17.52;100.00
63035;BME280;59750;53.356;-1.458;2022-09-12T16:48:53;99960.50;;;17.53;100.00
63035;BME280;59750;53.356;-1.458;2022-09-12T16:51:23;99954.34;;;17.52;100.00
63035;BME280;59750;53.356;-1.458;2022-09-12T16:53:53;99948.91;;;17.54;100.00
63035;BME280;59750;53.356;-1.458;2022-09-12T16:56:20;99954.22;;;17.54;100.00
63035;BME280;59750;53.356;-1.458;2022-09-12T16:58:46;99950.56;;;17.55;100.00
63035;BME280;59750;53.356;-1.458;2022-09-12T17:01:21;99949.72;;;17.54;100.00
63035;BME280;59750;53.356;-1.458;2022-09-12T17:03:55;99955.03;;;17.54;100.00
63035;BME280;59750;53.356;-1.458;2022-09-12T17:06:23;99952.53;;;17.53;100.00
63035;BME280;59750;53.356;-1.458;2022-09-12T17:08:52;99948.06;;;17.53;100.00
63035;BME280;59750;53.356;-1.458;2022-09-12T17:11:23;99950.56;;;17.55;100.00
63035;BME280;59750;53.356;-1.458;2022-09-12T17:13:52;99959.53;;;17.54;100.00
63035;BME280;59750;53.356;-1.458;2022-09-12T17:16:20;99962.19;;;17.54;100.00
63035;BME280;59750;53.356;-1.458;2022-09-12T17:18:47;99961.19;;;17.55;100.00
63035;BME280;59750;53.356;-1.458;2022-09-12T17:21:14;99955.88;;;17.55;100.00
63035;BME280;59750;53.356;-1.458;2022-09-12T17:23:41;99961.19;;;17.55;100.00
63035;BME280;59750;53.356;-1.458;2022-09-12T17:26:09;99955.03;;;17.54;100.00
63035;BME280;59750;53.356;-1.458;2022-09-12T17:28:37;99963.16;;;17.53;100.00
63035;BME280;59750;53.356;-1.458;2022-09-12T17:31:06;99968.47;;;17.53;100.00
63035;BME280;59750;53.356;-1.458;2022-09-12T17:33:34;99973.78;;;17.53;100.00
63035;BME280;59750;53.356;-1.458;2022-09-12T17:36:02;99972.00;;;17.53;100.00
63035;BME280;59750;53.356;-1.458;2022-09-12T17:38:31;99966.00;;;17.51;100.00
63035;BME280;59750;53.356;-1.458;2022-09-12T17:41:13;99968.66;;;17.51;100.00
63035;BME280;59750;53.356;-1.458;2022-09-12T17:43:42;99969.81;;;17.49;100.00
63035;BME280;59750;53.356;-1.458;2022-09-12T17:46:09;99970.00;;;17.47;100.00
63035;BME280;59750;53.356;-1.458;2022-09-12T17:48:36;99975.31;;;17.47;100.00
63035;BME280;59750;53.356;-1.458;2022-09-12T17:51:11;99987.94;;;17.45;100.00
63035;BME280;59750;53.356;-1.458;2022-09-12T17:53:40;100000.56;;;17.43;100.00
63035;BME280;59750;53.356;-1.458;2022-09-12T17:56:08;99996.75;;;17.38;100.00
63035;BME280;59750;53.356;-1.458;2022-09-12T17:58:36;99997.75;;;17.37;100.00
63035;BME280;59750;53.356;-1.458;2022-09-12T18:01:09;99992.44;;;17.28;100.00
63035;BME280;59750;53.356;-1.458;2022-09-12T18:03:56;99990.41;;;17.22;100.00
63035;BME280;59750;53.356;-1.458;2022-09-12T18:06:26;99998.72;;;17.19;100.00
63035;BME280;59750;53.356;-1.458;2022-09-12T18:08:54;99998.22;;;17.16;100.00
63035;BME280;59750;53.356;-1.458;2022-09-12T18:11:20;100001.03;;;17.14;100.00
63035;BME280;59750;53.356;-1.458;2022-09-12T18:13:46;100006.69;;;17.11;100.00
63035;BME280;59750;53.356;-1.458;2022-09-12T18:16:13;100003.03;;;17.12;100.00
63035;BME280;59750;53.356;-1.458;2022-09-12T18:18:40;100011.34;;;17.09;100.00
63035;BME280;59750;53.356;-1.458;2022-09-12T18:21:09;100008.53;;;17.11;100.00
63035;BME280;59750;53.356;-1.458;2022-09-12T18:23:36;100014.00;;;17.09;100.00
63035;BME280;59750;53.356;-1.458;2022-09-12T18:26:05;100014.16;;;17.08;100.00
